Accedi per prenotare

Caricamento...

Situazione Metar e Taf aeroporto Pisa - Effemeridi Aeroporto Lucca

[Source: ADDS]
METAR
LIRP 161615Z VRB01KT 5000 -RA BR SCT030 BKN045 04/04 Q1016 TEMPO 3000 RA =
LIRP 161100Z 1612/1712 12008KT 9999 SCT030 SCT050 TEMPO 1614/1712 5000 RA BR
TAF
LIRP 161100Z 1612/1712 12008KT 9999 SCT030 SCT050 TEMPO 1614/1712 5000 RA BR =
SR / SS: 06:44 / 15:46 UTC (Effemeridi LIQL 2018-12-16)